»·PEaware :: SWA1412 KLAX-KPHX

SWA1412 :: KLAX-KPHX

FLIGHT INFORMATION

Flight Status: Arrived
Operator:
Southwest Airlines
More flights by this operator :: More flights under this callsign
Pilot: Omar I. (2375)
Aircraft: BOEING 737-300
(B733)
More flights by this aircraft type
Origin: KLAX Los Angeles Intl
United States
Destination: KPHX Phoenix Sky Harbor Intl
United States
More flights between these airports :: More routes between these airports
Route: +DOTSS2 CNERY BLH HYDRR1
File this flight plan on PilotEdge
Remarks:
Altitude:
(Current/Filed)
27,000ft
Speed:
(Current/Filed)
400kts
Departed: 03-Dec-18 08:59 PM
Arrived: 03-Dec-18 09:55 PM
Distance/Time
Traveled:
321nm/0:55
Distance/Time
To Go:
Arrived

Flight Plot

Page will automatically refresh every two minutes.

Flight plan parsing failed; only flown route is shown


Map Options




Map Legend


Flown Route
Filed Route
Departure Airport
Arrival Airport
Navaid (VOR, NDB)
Fix

Horizontal Profiles

Position Reports

Time Latitude Longitude Heading Altitude Ground
Speed
03-Dec-18 20:18 33.947829 -118.401684 143 121ft 0kts
03-Dec-18 20:19 33.947829 -118.401684 143 121ft 0kts
03-Dec-18 20:20 33.947829 -118.401684 143 121ft 0kts
03-Dec-18 20:21 33.947829 -118.401684 143 121ft 0kts
03-Dec-18 20:22 33.947829 -118.401684 143 121ft 0kts
03-Dec-18 20:23 33.947829 -118.401684 143 121ft 0kts
03-Dec-18 20:24 33.947829 -118.401684 143 121ft 0kts
03-Dec-18 20:25 33.947829 -118.401684 143 121ft 0kts
03-Dec-18 20:26 33.947829 -118.401684 143 121ft 0kts
03-Dec-18 20:27 33.947829 -118.401684 143 121ft 0kts
03-Dec-18 20:28 33.947829 -118.401684 143 121ft 0kts
03-Dec-18 20:29 33.947829 -118.401684 143 121ft 0kts
03-Dec-18 20:30 33.947829 -118.401684 143 121ft 0kts
03-Dec-18 20:31 33.947829 -118.401684 143 121ft 0kts
03-Dec-18 20:32 33.947829 -118.401684 143 121ft 0kts
03-Dec-18 20:33 33.947829 -118.401684 143 121ft 0kts
03-Dec-18 20:34 33.947829 -118.401684 143 121ft 0kts
03-Dec-18 20:35 33.947829 -118.401684 143 121ft 0kts
03-Dec-18 20:36 33.947829 -118.401684 143 121ft 0kts
03-Dec-18 20:37 33.947829 -118.401684 143 121ft 0kts
03-Dec-18 20:38 33.947829 -118.401684 143 121ft 0kts
03-Dec-18 20:39 33.947829 -118.401684 143 121ft 0kts
03-Dec-18 20:40 33.947829 -118.401684 143 121ft 0kts
03-Dec-18 20:41 33.947829 -118.401684 143 121ft 0kts
03-Dec-18 20:42 33.947829 -118.401684 143 121ft 0kts
03-Dec-18 20:43 33.948208 -118.402026 143 121ft 0kts
03-Dec-18 20:44 33.948208 -118.402026 143 121ft 0kts
03-Dec-18 20:45 33.948208 -118.402026 143 121ft 0kts
03-Dec-18 20:46 33.948208 -118.402026 143 121ft 0kts
03-Dec-18 20:47 33.948208 -118.402026 143 121ft 0kts
03-Dec-18 20:48 33.948208 -118.402026 143 121ft 0kts
03-Dec-18 20:49 33.948175 -118.401964 105 121ft 1kts
03-Dec-18 20:50 33.948277 -118.401592 79 120ft 1kts
03-Dec-18 20:51 33.948750 -118.400822 17 119ft 9kts
03-Dec-18 20:52 33.949292 -118.399852 81 118ft 0kts
03-Dec-18 20:54 33.949294 -118.399836 82 118ft 0kts
03-Dec-18 20:55 33.949328 -118.399593 74 117ft 0kts
03-Dec-18 20:56 33.949338 -118.399553 72 117ft 1kts
03-Dec-18 20:57 33.950353 -118.399801 264 117ft 5kts
03-Dec-18 20:58 33.950291 -118.400446 265 117ft 36kts
03-Dec-18 20:59 33.944066 -118.454694 261 1305ft 242kts
03-Dec-18 21:00 33.932056 -118.545892 264 3130ft 284kts
03-Dec-18 21:01 33.898579 -118.613838 208 4602ft 259kts
03-Dec-18 21:02 33.829965 -118.628492 156 6146ft 276kts
03-Dec-18 21:03 33.765974 -118.581639 149 7714ft 282kts
03-Dec-18 21:04 33.705558 -118.523600 115 9405ft 295kts
03-Dec-18 21:05 33.672638 -118.434018 117 11195ft 304kts
03-Dec-18 21:06 33.647732 -118.341353 94 12914ft 316kts
03-Dec-18 21:07 33.645438 -118.237922 91 14662ft 330kts
03-Dec-18 21:08 33.646158 -118.133993 88 16342ft 343kts
03-Dec-18 21:09 33.646961 -118.023819 90 18054ft 357kts
03-Dec-18 21:10 33.646921 -117.906624 90 19805ft 372kts
03-Dec-18 21:11 33.640426 -117.784326 110 21575ft 379kts
03-Dec-18 21:12 33.607076 -117.664088 111 22621ft 409kts
03-Dec-18 21:13 33.570139 -117.532226 111 23558ft 443kts
03-Dec-18 21:13 33.538227 -117.418612 111 24308ft 470kts
03-Dec-18 21:15 33.499503 -117.240353 106 25329ft 494kts
03-Dec-18 21:15 33.472519 -117.109860 106 26073ft 501kts
03-Dec-18 21:17 33.480613 -116.919762 81 27023ft 508kts
03-Dec-18 21:17 33.495827 -116.782617 81 27053ft 506kts
03-Dec-18 21:18 33.502519 -116.618249 90 27091ft 507kts
03-Dec-18 21:20 33.497928 -116.425812 93 27072ft 506kts
03-Dec-18 21:20 33.490362 -116.289526 94 27053ft 505kts
03-Dec-18 21:21 33.481381 -116.124972 94 27065ft 506kts
03-Dec-18 21:22 33.511490 -115.968408 57 27064ft 497kts
03-Dec-18 21:23 33.564631 -115.816412 68 27064ft 501kts
03-Dec-18 21:24 33.601266 -115.657717 74 27065ft 504kts
03-Dec-18 21:25 33.625733 -115.495055 88 27066ft 506kts
03-Dec-18 21:26 33.626551 -115.332494 90 27033ft 506kts
03-Dec-18 21:27 33.621635 -115.165545 94 27071ft 502kts
03-Dec-18 21:28 33.611679 -115.007568 93 27052ft 478kts
03-Dec-18 21:29 33.601825 -114.849453 93 27060ft 480kts
03-Dec-18 21:30 33.583767 -114.693796 104 27059ft 479kts
03-Dec-18 21:31 33.552999 -114.539241 103 27055ft 479kts
03-Dec-18 21:32 33.522997 -114.385430 103 27056ft 479kts
03-Dec-18 21:33 33.494709 -114.241169 104 27055ft 479kts
03-Dec-18 21:34 33.464475 -114.088282 104 25358ft 472kts
03-Dec-18 21:35 33.434804 -113.942327 104 25052ft 468kts
03-Dec-18 21:36 33.404993 -113.793859 104 25005ft 457kts
03-Dec-18 21:37 33.374604 -113.643205 103 23282ft 465kts
03-Dec-18 21:38 33.345043 -113.497923 104 21505ft 446kts
03-Dec-18 21:39 33.319307 -113.357237 101 21055ft 442kts
03-Dec-18 21:40 33.295693 -113.218178 99 19780ft 426kts
03-Dec-18 21:41 33.276500 -113.084184 99 18183ft 398kts
03-Dec-18 21:42 33.277105 -112.958232 85 16599ft 373kts
03-Dec-18 21:43 33.280322 -112.839057 83 15017ft 352kts
03-Dec-18 21:44 33.310620 -112.740831 62 13421ft 317kts
03-Dec-18 21:45 33.344828 -112.650759 62 11795ft 290kts
03-Dec-18 21:46 33.376740 -112.567295 62 10358ft 273kts
03-Dec-18 21:47 33.407129 -112.486405 64 8673ft 260kts
03-Dec-18 21:48 33.414110 -112.406445 116 8578ft 260kts
03-Dec-18 21:49 33.410178 -112.321584 78 5962ft 285kts
03-Dec-18 21:50 33.417175 -112.234455 87 4560ft 253kts
03-Dec-18 21:51 33.429506 -112.159822 85 3241ft 205kts
03-Dec-18 21:52 33.428276 -112.103458 92 2225ft 148kts
03-Dec-18 21:53 33.429207 -112.053857 88 1592ft 148kts
03-Dec-18 21:54 33.428851 -112.012801 87 1138ft 28kts
03-Dec-18 21:55 33.429821 -112.010134 68 1138ft 0kts
03-Dec-18 21:56 33.429822 -112.010133 68 1138ft 0kts
03-Dec-18 21:57 33.431609 -112.008954 8 1138ft 13kts
03-Dec-18 21:58 33.432136 -112.007892 85 1138ft 8kts
03-Dec-18 21:59 33.432809 -112.004123 81 1138ft 14kts
03-Dec-18 22:00 33.433638 -112.000457 358 1138ft 5kts
03-Dec-18 22:01 33.433913 -111.999940 101 1138ft 0kts
03-Dec-18 22:02 33.433913 -111.999940 101 1138ft 0kts

Navigation Log

Ident Type
Flight plan parsing failed, navigation log unavailable